createdAt,value
2023-10-29T00:00:07.256Z,99027.25
2023-10-29T00:00:38.775Z,99021.78
2023-10-29T00:01:10.324Z,99019.41
2023-10-29T00:01:42.284Z,99024.88
2023-10-29T00:02:14.118Z,99023.34
2023-10-29T00:02:45.886Z,99024.88
2023-10-29T00:03:17.537Z,99044.31
2023-10-29T00:03:49.210Z,99041.59
2023-10-29T00:04:20.792Z,99038.09
2023-10-29T00:04:52.317Z,99037.31
2023-10-29T00:05:23.851Z,99042.78
2023-10-29T00:05:55.414Z,99034.94
2023-10-29T00:06:26.872Z,99032.22
2023-10-29T00:06:58.328Z,99030.25
2023-10-29T00:07:29.808Z,99029.06
2023-10-29T00:08:01.474Z,99027.09
2023-10-29T00:08:32.900Z,99037.25
2023-10-29T00:09:04.508Z,99028.63
2023-10-29T00:09:36.187Z,99023.16
2023-10-29T00:10:08.273Z,99012.25
2023-10-29T00:10:39.749Z,99021.19
2023-10-29T00:11:13.353Z,99003.59
2023-10-29T00:11:44.808Z,99006.34
2023-10-29T00:12:16.482Z,99008.28
2023-10-29T00:12:47.951Z,98991.91
2023-10-29T00:13:19.452Z,99009.06
2023-10-29T00:13:50.964Z,99011.03
2023-10-29T00:14:23.056Z,99009.06
2023-10-29T00:14:54.620Z,99014.53
2023-10-29T00:15:26.131Z,99014.53
2023-10-29T00:15:57.644Z,99021.09
2023-10-29T00:16:29.177Z,99016.06
2023-10-29T00:17:00.626Z,99013.34
2023-10-29T00:17:32.756Z,99014.88
2023-10-29T00:18:09.802Z,99004.72
2023-10-29T00:18:41.876Z,99014.44
2023-10-29T00:19:13.319Z,99014.44
2023-10-29T00:19:44.759Z,99018.38
2023-10-29T00:20:16.290Z,99011.28
2023-10-29T00:20:47.929Z,99012.06
2023-10-29T00:21:19.385Z,99012.47
2023-10-29T00:21:51.033Z,99011.28
2023-10-29T00:22:22.470Z,99005.84
2023-10-29T00:22:54.088Z,99011.28
2023-10-29T00:23:25.609Z,99008.13
2023-10-29T00:23:57.117Z,98995.69
2023-10-29T00:24:28.757Z,99007.38
2023-10-29T00:25:19.257Z,98996.03
2023-10-29T00:25:50.764Z,98994.47
2023-10-29T00:26:22.228Z,98992.53
2023-10-29T00:26:53.775Z,98988.25
2023-10-29T00:27:25.310Z,98991.75
2023-10-29T00:27:56.772Z,98992.53
2023-10-29T00:28:28.844Z,98986.28
2023-10-29T00:29:00.397Z,98993.72
2023-10-29T00:29:32.831Z,98985.09
2023-10-29T00:30:04.899Z,98988.59
2023-10-29T00:30:36.334Z,98988.59
2023-10-29T00:31:08.155Z,98981.19
2023-10-29T00:31:39.673Z,98988.59
2023-10-29T00:32:12.225Z,98986.63
2023-10-29T00:32:43.763Z,98990.13
2023-10-29T00:33:15.796Z,98989.38
2023-10-29T00:33:47.405Z,98988.94
2023-10-29T00:34:18.938Z,98981.94
2023-10-29T00:34:50.426Z,98988.16
2023-10-29T00:35:21.932Z,98985.44
2023-10-29T00:35:55.101Z,98981.19
2023-10-29T00:36:26.652Z,98975.28
2023-10-29T00:36:58.119Z,98981.19
2023-10-29T00:37:29.628Z,98982.72
2023-10-29T00:38:01.709Z,98992.44
2023-10-29T00:38:33.298Z,98978.78
2023-10-29T00:39:04.828Z,98985.44
2023-10-29T00:39:36.301Z,98992.44
2023-10-29T00:40:09.520Z,98989.72
2023-10-29T00:40:41.023Z,98986.22
2023-10-29T00:41:12.581Z,98981.50
2023-10-29T00:41:44.109Z,98976.06
2023-10-29T00:42:15.617Z,98975.28
2023-10-29T00:42:47.203Z,98969.81
2023-10-29T00:43:18.663Z,98970.59
2023-10-29T00:43:50.760Z,98974.84
2023-10-29T00:44:22.596Z,98966.25
2023-10-29T00:44:54.152Z,98970.16
2023-10-29T00:45:25.773Z,98961.97
2023-10-29T00:45:58.254Z,98959.25
2023-10-29T00:46:30.024Z,98962.75
2023-10-29T00:47:01.526Z,98959.25
2023-10-29T00:47:33.732Z,98957.28
2023-10-29T00:48:05.627Z,98951.06
2023-10-29T00:48:38.248Z,98962.75
2023-10-29T00:49:10.212Z,98954.56
2023-10-29T00:49:41.750Z,98943.63
2023-10-29T00:50:14.224Z,98942.44
2023-10-29T00:50:45.999Z,98947.13
2023-10-29T00:51:18.439Z,98939.72
2023-10-29T00:52:08.648Z,98936.97
2023-10-29T00:52:40.167Z,98937.75
2023-10-29T00:53:11.915Z,98943.97
2023-10-29T00:53:43.682Z,98940.47
2023-10-29T00:54:34.058Z,98943.22
2023-10-29T00:55:06.095Z,98944.75
2023-10-29T00:55:37.778Z,98940.47
2023-10-29T00:56:09.882Z,98936.97
2023-10-29T00:56:41.360Z,98930.31
2023-10-29T00:57:12.887Z,98932.28
2023-10-29T00:57:44.487Z,98928.34
2023-10-29T00:58:17.810Z,98933.06
2023-10-29T00:58:50.166Z,98935.78
2023-10-29T00:59:22.403Z,98941.25
2023-10-29T00:59:54.625Z,98945.50
2023-10-29T01:00:26.244Z,98933.06
2023-10-29T01:00:58.497Z,98935.34
2023-10-29T01:01:30.002Z,98937.31
2023-10-29T01:02:03.013Z,98935.34
2023-10-29T01:02:35.081Z,98936.13
2023-10-29T01:03:06.696Z,98927.94
2023-10-29T01:03:38.351Z,98929.13
2023-10-29T01:04:10.034Z,98930.66
2023-10-29T01:04:42.389Z,98927.94
2023-10-29T01:05:13.863Z,98928.69
2023-10-29T01:05:49.152Z,98926.72
2023-10-29T01:06:21.437Z,98922.00
2023-10-29T01:06:53.177Z,98926.72
2023-10-29T01:07:43.167Z,98931.44
2023-10-29T01:08:15.574Z,98934.94
2023-10-29T01:08:47.316Z,98934.94
2023-10-29T01:09:19.419Z,98931.44
2023-10-29T01:09:51.378Z,98925.97
2023-10-29T01:10:22.804Z,98925.19
2023-10-29T01:10:54.699Z,98942.34
2023-10-29T01:11:26.211Z,98933.38
2023-10-29T01:11:58.166Z,98941.13
2023-10-29T01:12:29.702Z,98933.69
2023-10-29T01:13:01.326Z,98942.66
2023-10-29T01:13:33.638Z,98929.00
2023-10-29T01:14:55.067Z,98923.16
2023-10-29T01:15:26.717Z,98914.97
2023-10-29T01:15:58.196Z,98921.94
2023-10-29T01:16:29.682Z,98912.22
2023-10-29T01:17:01.089Z,98913.75
2023-10-29T01:17:32.639Z,98913.75
2023-10-29T01:18:04.340Z,98912.22
2023-10-29T01:18:36.111Z,98911.03
2023-10-29T01:19:07.638Z,98923.16
2023-10-29T01:19:39.288Z,98917.69
2023-10-29T01:20:12.761Z,98913.75
2023-10-29T01:20:44.311Z,98917.69
2023-10-29T01:21:17.170Z,98930.91
2023-10-29T01:21:48.864Z,98918.44
2023-10-29T01:22:20.705Z,98921.19
2023-10-29T01:22:52.863Z,98911.78
2023-10-29T01:23:24.536Z,98916.50
2023-10-29T01:23:56.361Z,98914.19
2023-10-29T01:24:46.523Z,98910.25
2023-10-29T01:25:18.339Z,98913.75
2023-10-29T01:25:49.810Z,98911.03
2023-10-29T01:26:21.399Z,98915.72
2023-10-29T01:26:54.344Z,98911.78
2023-10-29T01:27:26.030Z,98907.88
2023-10-29T01:27:59.260Z,98910.25
2023-10-29T01:28:30.908Z,98912.22
2023-10-29T01:29:02.409Z,98911.47
2023-10-29T01:29:33.928Z,98904.03
2023-10-29T01:30:08.762Z,98903.25
2023-10-29T01:30:40.177Z,98913.00
2023-10-29T01:31:11.973Z,98910.25
2023-10-29T01:31:43.537Z,98906.75
2023-10-29T01:32:15.315Z,98897.38
2023-10-29T01:32:47.157Z,98906.00
2023-10-29T01:33:18.808Z,98900.09
2023-10-29T01:33:50.378Z,98893.13
2023-10-29T01:34:21.950Z,98891.91
2023-10-29T01:34:53.639Z,98889.94
2023-10-29T01:35:25.079Z,98888.00
2023-10-29T01:36:15.173Z,98893.78
2023-10-29T01:36:46.689Z,98888.31
2023-10-29T01:37:18.148Z,98891.06
2023-10-29T01:37:50.281Z,98889.09
2023-10-29T01:38:21.741Z,98896.53
2023-10-29T01:38:53.252Z,98888.31
2023-10-29T01:39:24.751Z,98892.25
2023-10-29T01:39:56.433Z,98895.75
2023-10-29T01:40:28.146Z,98893.03
2023-10-29T01:41:00.048Z,98893.78
2023-10-29T01:41:31.600Z,98898.47
2023-10-29T01:42:22.254Z,98899.25
2023-10-29T01:42:53.780Z,98891.06
2023-10-29T01:43:25.698Z,98888.31
2023-10-29T01:43:57.136Z,98882.88
2023-10-29T01:44:28.578Z,98878.16
2023-10-29T01:45:00.172Z,98882.88
2023-10-29T01:45:31.710Z,98886.38
2023-10-29T01:46:03.409Z,98883.63
2023-10-29T01:46:34.942Z,98878.16
2023-10-29T01:47:06.809Z,98880.47
2023-10-29T01:47:38.323Z,98883.19
2023-10-29T01:48:10.012Z,98879.69
2023-10-29T01:48:41.556Z,98885.94
2023-10-29T01:49:13.534Z,98879.69
2023-10-29T01:49:45.026Z,98885.16
2023-10-29T01:50:16.528Z,98887.13
2023-10-29T01:50:48.711Z,98887.91
2023-10-29T01:51:20.651Z,98892.16
2023-10-29T01:51:52.131Z,98883.97
2023-10-29T01:52:23.599Z,98889.44
2023-10-29T01:52:55.404Z,98885.94
2023-10-29T01:53:45.468Z,98887.47
2023-10-29T01:54:17.075Z,98883.97
2023-10-29T01:54:48.981Z,98894.47
2023-10-29T01:55:20.518Z,98892.16
2023-10-29T01:55:52.000Z,98889.44
2023-10-29T01:56:23.489Z,98885.50
2023-10-29T01:56:54.965Z,98884.31
2023-10-29T01:57:26.417Z,98885.06
2023-10-29T01:58:16.567Z,98892.06
2023-10-29T01:58:48.051Z,98887.38
2023-10-29T01:59:19.484Z,98884.63
2023-10-29T01:59:50.945Z,98875.69
2023-10-29T02:00:22.470Z,98876.44
2023-10-29T02:00:56.329Z,98877.22
2023-10-29T02:01:28.538Z,98876.44
2023-10-29T02:02:00.113Z,98882.69
2023-10-29T02:02:31.606Z,98881.13
2023-10-29T02:03:03.288Z,98877.97
2023-10-29T02:03:34.963Z,98869.03
2023-10-29T02:04:09.922Z,98871.31
2023-10-29T02:04:41.404Z,98876.03
2023-10-29T02:05:12.975Z,98876.03
2023-10-29T02:05:44.452Z,98871.75
2023-10-29T02:06:19.575Z,98879.50
2023-10-29T02:06:51.068Z,98874.06
2023-10-29T02:07:22.478Z,98876.34
2023-10-29T02:07:53.979Z,98873.28
2023-10-29T02:08:25.408Z,98876.78
2023-10-29T02:08:58.244Z,98870.56
2023-10-29T02:09:29.782Z,98867.81
2023-10-29T02:10:01.275Z,98872.84
2023-10-29T02:10:32.933Z,98866.63
2023-10-29T02:11:04.414Z,98865.09
2023-10-29T02:11:40.185Z,98866.63
2023-10-29T02:12:12.142Z,98863.91
2023-10-29T02:12:43.620Z,98863.13
2023-10-29T02:13:16.049Z,98863.91
2023-10-29T02:13:47.474Z,98861.16
2023-10-29T02:14:19.011Z,98854.50
2023-10-29T02:14:50.527Z,98852.19
2023-10-29T02:15:22.002Z,98846.31
2023-10-29T02:15:53.500Z,98847.50
2023-10-29T02:16:25.045Z,98844.34
2023-10-29T02:16:56.506Z,98849.03
2023-10-29T02:17:28.642Z,98847.84
2023-10-29T02:18:00.423Z,98838.88
2023-10-29T02:18:32.150Z,98840.84
2023-10-29T02:19:04.647Z,98838.13
2023-10-29T02:19:36.346Z,98844.34
2023-10-29T02:20:08.539Z,98843.16
2023-10-29T02:20:40.074Z,98845.13
2023-10-29T02:21:11.522Z,98849.38
2023-10-29T02:21:43.006Z,98843.91
2023-10-29T02:22:14.494Z,98840.41
2023-10-29T02:22:45.918Z,98841.19
2023-10-29T02:23:17.438Z,98850.88
2023-10-29T02:23:49.098Z,98841.19
2023-10-29T02:24:20.619Z,98850.88
2023-10-29T02:24:52.286Z,98850.13
2023-10-29T02:25:23.769Z,98846.66
2023-10-29T02:25:55.171Z,98858.31
2023-10-29T02:26:26.604Z,98851.34
2023-10-29T02:26:58.124Z,98843.91
2023-10-29T02:28:18.495Z,98852.84
2023-10-29T02:28:50.524Z,98860.31
2023-10-29T02:29:21.991Z,98860.31
2023-10-29T02:29:55.427Z,98860.31
2023-10-29T02:30:26.917Z,98865.75
2023-10-29T02:30:58.413Z,98863.03
2023-10-29T02:31:29.890Z,98863.03
2023-10-29T02:32:01.431Z,98869.22
2023-10-29T02:32:32.944Z,98863.78
2023-10-29T02:33:04.581Z,98859.06
2023-10-29T02:33:36.237Z,98860.31
2023-10-29T02:34:07.998Z,98853.63
2023-10-29T02:34:39.555Z,98854.38
2023-10-29T02:35:11.119Z,98852.84
2023-10-29T02:35:42.570Z,98853.63
2023-10-29T02:36:14.665Z,98852.09
2023-10-29T02:36:46.115Z,98855.56
2023-10-29T02:37:17.512Z,98854.84
2023-10-29T02:37:48.954Z,98852.53
2023-10-29T02:38:20.631Z,98857.56
2023-10-29T02:38:52.082Z,98851.34
2023-10-29T02:39:23.526Z,98852.09
2023-10-29T02:39:54.979Z,98853.63
2023-10-29T02:40:26.406Z,98851.66
2023-10-29T02:41:16.510Z,98850.56
2023-10-29T02:41:47.976Z,98846.66
2023-10-29T02:42:19.426Z,98852.09
2023-10-29T02:42:50.976Z,98845.13
2023-10-29T02:43:22.420Z,98842.38
2023-10-29T02:43:56.112Z,98844.34
2023-10-29T02:44:46.588Z,98851.78
2023-10-29T02:45:18.239Z,98848.28
2023-10-29T02:45:49.722Z,98847.50
2023-10-29T02:46:21.186Z,98854.16
2023-10-29T02:46:52.730Z,98847.94
2023-10-29T02:47:24.287Z,98848.72
2023-10-29T02:47:55.991Z,98847.94
2023-10-29T02:48:28.112Z,98844.00
2023-10-29T02:49:00.164Z,98845.22
2023-10-29T02:49:31.644Z,98839.75
2023-10-29T02:50:03.382Z,98838.22
2023-10-29T02:50:38.670Z,98840.19
2023-10-29T02:51:13.420Z,98845.63
2023-10-29T02:52:03.602Z,98842.91
2023-10-29T02:52:35.106Z,98841.72
2023-10-29T02:53:06.692Z,98844.44
2023-10-29T02:53:38.158Z,98842.91
2023-10-29T02:54:09.657Z,98852.31
2023-10-29T02:54:41.239Z,98839.84
2023-10-29T02:55:31.223Z,98844.09
2023-10-29T02:56:02.732Z,98839.84
2023-10-29T02:56:36.103Z,98838.66
2023-10-29T02:57:07.620Z,98839.84
2023-10-29T02:57:39.030Z,98837.13
2023-10-29T02:58:10.498Z,98837.88
2023-10-29T02:58:41.979Z,98835.16
2023-10-29T02:59:13.475Z,98840.63
2023-10-29T02:59:45.045Z,98849.56
2023-10-29T03:00:17.083Z,98836.34
2023-10-29T03:00:49.117Z,98841.38
2023-10-29T03:01:20.688Z,98847.59
2023-10-29T03:01:52.171Z,98837.44
2023-10-29T03:02:23.677Z,98853.41
2023-10-29T03:02:55.804Z,98851.44
2023-10-29T03:03:27.400Z,98853.75
2023-10-29T03:03:59.132Z,98846.75
2023-10-29T03:04:30.696Z,98854.50
2023-10-29T03:05:02.674Z,98850.56
2023-10-29T03:05:46.280Z,98852.84
2023-10-29T03:06:21.918Z,98860.59
2023-10-29T03:06:53.455Z,98860.59
2023-10-29T03:07:24.899Z,98861.38
2023-10-29T03:07:56.360Z,98857.88
2023-10-29T03:08:27.820Z,98855.91
2023-10-29T03:08:59.324Z,98854.72
2023-10-29T03:09:30.837Z,98851.97
2023-10-29T03:10:02.315Z,98851.97
2023-10-29T03:10:33.927Z,98852.75
2023-10-29T03:11:05.581Z,98858.97
2023-10-29T03:11:37.050Z,98850.78
2023-10-29T03:12:08.583Z,98848.81
2023-10-29T03:12:40.060Z,98855.81
2023-10-29T03:13:11.554Z,98857.78
2023-10-29T03:13:43.037Z,98855.06
2023-10-29T03:14:14.481Z,98859.31
2023-10-29T03:14:46.174Z,98848.38
2023-10-29T03:15:17.849Z,98860.09
2023-10-29T03:15:49.345Z,98855.38
2023-10-29T03:16:21.001Z,98853.41
2023-10-29T03:16:52.530Z,98847.94
2023-10-29T03:17:23.950Z,98853.41
2023-10-29T03:18:14.780Z,98856.47
2023-10-29T03:18:48.519Z,98848.28
2023-10-29T03:19:20.156Z,98848.28
2023-10-29T03:19:51.601Z,98849.50
2023-10-29T03:20:23.044Z,98847.53
2023-10-29T03:20:54.494Z,98849.50
2023-10-29T03:21:25.954Z,98847.09
2023-10-29T03:21:57.505Z,98852.56
2023-10-29T03:22:28.963Z,98844.34
2023-10-29T03:23:00.499Z,98856.06
2023-10-29T03:23:32.076Z,98848.63
2023-10-29T03:24:03.831Z,98847.84
2023-10-29T03:24:35.314Z,98847.09
2023-10-29T03:25:07.907Z,98850.59
2023-10-29T03:25:39.793Z,98836.16
2023-10-29T03:26:11.318Z,98852.56
2023-10-29T03:26:43.189Z,98842.41
2023-10-29T03:27:14.730Z,98841.63
2023-10-29T03:27:46.844Z,98836.16
2023-10-29T03:28:18.351Z,98843.16
2023-10-29T03:29:08.807Z,98840.44
2023-10-29T03:29:40.348Z,98842.41
2023-10-29T03:30:12.311Z,98837.69
2023-10-29T03:30:43.730Z,98841.28
2023-10-29T03:31:16.152Z,98852.97
2023-10-29T03:31:49.035Z,98845.56
2023-10-29T03:32:20.586Z,98843.59
2023-10-29T03:32:53.303Z,98849.81
2023-10-29T03:33:24.969Z,98846.31
2023-10-29T03:33:56.494Z,98850.59
2023-10-29T03:34:27.975Z,98853.31
2023-10-29T03:34:59.462Z,98848.63
2023-10-29T03:35:30.972Z,98859.53
2023-10-29T03:36:05.453Z,98851.34
2023-10-29T03:36:37.060Z,98850.16
2023-10-29T03:37:08.577Z,98856.06
2023-10-29T03:37:40.343Z,98858.34
2023-10-29T03:38:11.789Z,98850.91
2023-10-29T03:38:43.304Z,98857.91
2023-10-29T03:39:14.907Z,98854.41
2023-10-29T03:39:46.459Z,98858.69
2023-10-29T03:40:17.930Z,98854.75
2023-10-29T03:41:07.825Z,98855.53
2023-10-29T03:41:39.327Z,98849.28
2023-10-29T03:42:10.880Z,98862.19
2023-10-29T03:42:42.333Z,98864.47
2023-10-29T03:43:13.733Z,98867.22
2023-10-29T03:43:45.178Z,98856.28
2023-10-29T03:44:19.020Z,98860.97
2023-10-29T03:44:50.569Z,98863.28
2023-10-29T03:45:22.111Z,98855.09
2023-10-29T03:45:53.632Z,98855.84
2023-10-29T03:46:25.207Z,98857.34
2023-10-29T03:46:56.687Z,98861.63
2023-10-29T03:47:28.296Z,98861.63
2023-10-29T03:47:59.900Z,98853.44
2023-10-29T03:48:31.452Z,98863.91
2023-10-29T03:49:02.955Z,98849.50
2023-10-29T03:49:34.394Z,98858.47
2023-10-29T03:50:06.525Z,98857.25
2023-10-29T03:50:38.020Z,98864.69
2023-10-29T03:51:09.507Z,98862.72
2023-10-29T03:51:46.090Z,98863.91
2023-10-29T03:52:19.794Z,98855.72
2023-10-29T03:52:51.265Z,98862.38
2023-10-29T03:53:22.734Z,98872.88
2023-10-29T03:53:54.249Z,98867.41
2023-10-29T03:54:25.796Z,98868.94
2023-10-29T03:54:57.279Z,98855.28
2023-10-29T03:55:28.760Z,98869.72
2023-10-29T03:56:18.993Z,98862.28
2023-10-29T03:56:50.495Z,98873.97
2023-10-29T03:57:21.984Z,98873.97
2023-10-29T03:57:53.658Z,98870.50
2023-10-29T03:58:25.197Z,98871.25
2023-10-29T03:58:56.656Z,98872.78
2023-10-29T03:59:28.143Z,98874.75
2023-10-29T03:59:59.630Z,98873.56
2023-10-29T04:00:31.160Z,98875.53
2023-10-29T04:01:02.858Z,98873.56
2023-10-29T04:01:34.333Z,98876.72
2023-10-29T04:02:05.957Z,98870.50
2023-10-29T04:02:37.538Z,98873.97
2023-10-29T04:03:09.104Z,98875.94
2023-10-29T04:03:41.303Z,98870.50
2023-10-29T04:04:12.864Z,98876.38
2023-10-29T04:04:50.667Z,98874.41
2023-10-29T04:05:29.100Z,98872.44
2023-10-29T04:06:00.691Z,98875.94
2023-10-29T04:06:32.836Z,98873.22
2023-10-29T04:07:04.397Z,98872.44
2023-10-29T04:07:35.954Z,98870.50
2023-10-29T04:08:07.386Z,98869.28
2023-10-29T04:08:39.946Z,98875.19
2023-10-29T04:09:11.437Z,98860.75
2023-10-29T04:09:43.087Z,98871.69
2023-10-29T04:10:14.806Z,98871.25
2023-10-29T04:10:46.296Z,98869.72
2023-10-29T04:11:17.746Z,98872.44
2023-10-29T04:11:49.340Z,98868.53
2023-10-29T04:12:20.950Z,98882.94
2023-10-29T04:12:52.458Z,98873.97
2023-10-29T04:13:23.905Z,98879.78
2023-10-29T04:13:55.405Z,98881.75
2023-10-29T04:14:27.096Z,98871.59
2023-10-29T04:14:58.855Z,98877.06
2023-10-29T04:15:30.367Z,98877.81
2023-10-29T04:16:01.893Z,98889.50
2023-10-29T04:16:33.437Z,98877.38
2023-10-29T04:17:05.474Z,98880.13
2023-10-29T04:17:37.024Z,98873.88
2023-10-29T04:18:08.619Z,98887.53
2023-10-29T04:18:40.179Z,98882.09
2023-10-29T04:19:11.658Z,98887.53
2023-10-29T04:19:43.137Z,98887.53
2023-10-29T04:20:14.657Z,98887.97
2023-10-29T04:20:46.391Z,98881.75
2023-10-29T04:21:17.923Z,98880.97
2023-10-29T04:21:49.408Z,98889.19
2023-10-29T04:22:20.880Z,98880.97
2023-10-29T04:22:52.371Z,98886.44
2023-10-29T04:23:23.802Z,98890.38
2023-10-29T04:23:55.247Z,98884.16
2023-10-29T04:24:26.870Z,98884.59
2023-10-29T04:24:58.339Z,98880.66
2023-10-29T04:25:48.190Z,98894.31
2023-10-29T04:26:19.783Z,98882.19
2023-10-29T04:26:51.311Z,98872.44
2023-10-29T04:27:22.789Z,98886.13
2023-10-29T04:27:55.592Z,98887.66
2023-10-29T04:28:27.101Z,98887.66
2023-10-29T04:28:58.577Z,98886.44
2023-10-29T04:29:30.028Z,98886.88
2023-10-29T04:30:01.605Z,98890.38
2023-10-29T04:30:33.234Z,98878.69
2023-10-29T04:31:04.932Z,98877.91
2023-10-29T04:31:36.440Z,98878.34
2023-10-29T04:32:08.122Z,98887.31
2023-10-29T04:32:39.704Z,98886.53
2023-10-29T04:33:11.311Z,98884.25
2023-10-29T04:33:46.186Z,98880.75
2023-10-29T04:34:17.637Z,98889.28
2023-10-29T04:34:49.298Z,98882.28
2023-10-29T04:35:20.935Z,98878.78
2023-10-29T04:35:52.498Z,98878.78
2023-10-29T04:36:25.290Z,98879.97
2023-10-29T04:36:56.865Z,98887.41
2023-10-29T04:37:28.366Z,98880.44
2023-10-29T04:37:59.829Z,98887.41
2023-10-29T04:38:32.434Z,98873.00
2023-10-29T04:39:04.116Z,98880.44
2023-10-29T04:39:35.625Z,98881.22
2023-10-29T04:40:07.809Z,98879.69
2023-10-29T04:40:39.210Z,98889.41
2023-10-29T04:41:10.698Z,98879.69
2023-10-29T04:41:42.283Z,98890.28
2023-10-29T04:42:13.776Z,98884.81
2023-10-29T04:42:45.270Z,98879.34
2023-10-29T04:43:16.729Z,98887.53
2023-10-29T04:43:48.698Z,98889.06
2023-10-29T04:44:20.126Z,98886.78
2023-10-29T04:44:51.613Z,98887.53
2023-10-29T04:45:23.239Z,98877.81
2023-10-29T04:45:54.743Z,98879.78
2023-10-29T04:46:26.268Z,98887.19
2023-10-29T04:46:57.777Z,98873.53
2023-10-29T04:47:29.437Z,98877.81
2023-10-29T04:48:01.018Z,98886.00
2023-10-29T04:48:32.608Z,98875.06
2023-10-29T04:49:04.305Z,98888.31
2023-10-29T04:49:35.777Z,98890.59
2023-10-29T04:50:07.656Z,98882.41
2023-10-29T04:50:39.134Z,98885.91
2023-10-29T04:51:10.992Z,98896.84
2023-10-29T04:51:42.540Z,98889.41
2023-10-29T04:53:03.635Z,98900.34
2023-10-29T04:53:36.157Z,98896.06
2023-10-29T04:54:08.537Z,98892.13
2023-10-29T04:54:40.155Z,98892.13
2023-10-29T04:55:11.667Z,98891.38
2023-10-29T04:55:43.188Z,98889.41
2023-10-29T04:56:14.611Z,98886.66
2023-10-29T04:56:46.025Z,98888.63
2023-10-29T04:57:21.510Z,98878.47
2023-10-29T04:57:52.959Z,98891.38
2023-10-29T04:58:24.388Z,98897.59
2023-10-29T04:58:55.826Z,98885.91
2023-10-29T04:59:27.258Z,98904.25
2023-10-29T04:59:58.737Z,98890.59
2023-10-29T05:00:31.107Z,98893.78
2023-10-29T05:01:02.654Z,98895.72
2023-10-29T05:01:34.168Z,98898.47
2023-10-29T05:02:05.844Z,98894.53
2023-10-29T05:02:37.546Z,98893.34
2023-10-29T05:03:09.138Z,98897.59
2023-10-29T05:03:59.639Z,98897.13
2023-10-29T05:04:31.430Z,98905.34
2023-10-29T05:05:04.789Z,98901.84
2023-10-29T05:05:36.972Z,98906.09
2023-10-29T05:06:08.942Z,98908.41
2023-10-29T05:06:40.428Z,98914.63
2023-10-29T05:07:11.916Z,98905.66
2023-10-29T05:07:46.014Z,98903.38
2023-10-29T05:08:17.543Z,98909.16
2023-10-29T05:08:50.641Z,98902.94
2023-10-29T05:09:22.279Z,98915.84
2023-10-29T05:09:53.701Z,98907.63
2023-10-29T05:10:26.848Z,98908.53
2023-10-29T05:10:58.264Z,98904.56
2023-10-29T05:11:29.844Z,98903.81
2023-10-29T05:12:01.454Z,98910.81
2023-10-29T05:12:32.974Z,98908.06
2023-10-29T05:13:04.734Z,98899.88
2023-10-29T05:13:36.186Z,98900.63
2023-10-29T05:14:07.845Z,98895.19
2023-10-29T05:14:39.485Z,98888.63
2023-10-29T05:15:14.044Z,98896.06
2023-10-29T05:15:45.634Z,98889.06
2023-10-29T05:16:17.499Z,98898.47
2023-10-29T05:16:49.014Z,98903.25
2023-10-29T05:17:20.574Z,98902.50
2023-10-29T05:17:52.110Z,98890.78
2023-10-29T05:18:23.735Z,98913.09
2023-10-29T05:18:55.233Z,98898.66
2023-10-29T05:19:26.712Z,98904.88
2023-10-29T05:19:58.328Z,98909.59
2023-10-29T05:20:29.965Z,98913.09
2023-10-29T05:21:03.008Z,98917.78
2023-10-29T05:21:34.806Z,98918.97
2023-10-29T05:22:06.330Z,98910.00
2023-10-29T05:22:38.902Z,98906.50
2023-10-29T05:23:11.314Z,98914.72
2023-10-29T05:23:42.833Z,98913.19
2023-10-29T05:24:14.295Z,98912.84
2023-10-29T05:24:45.864Z,98901.91
2023-10-29T05:25:17.488Z,98915.56
2023-10-29T05:25:48.985Z,98912.06
2023-10-29T05:26:22.868Z,98919.84
2023-10-29T05:26:54.860Z,98919.84
2023-10-29T05:27:26.313Z,98926.50
2023-10-29T05:27:58.908Z,98922.22
2023-10-29T05:28:30.452Z,98916.00
2023-10-29T05:29:01.937Z,98909.78
2023-10-29T05:29:34.704Z,98911.44
2023-10-29T05:30:06.980Z,98920.81
2023-10-29T05:30:40.178Z,98916.56
2023-10-29T05:31:11.712Z,98911.53
2023-10-29T05:31:43.378Z,98908.03
2023-10-29T05:32:14.830Z,98913.91
2023-10-29T05:32:46.395Z,98916.66
2023-10-29T05:33:17.929Z,98908.44
2023-10-29T05:33:49.432Z,98919.38
2023-10-29T05:34:20.902Z,98911.63
2023-10-29T05:34:52.394Z,98917.50
2023-10-29T05:35:23.855Z,98919.81
2023-10-29T05:35:56.402Z,98914.78
2023-10-29T05:36:28.406Z,98921.78
2023-10-29T05:37:00.027Z,98914.78
2023-10-29T05:37:31.558Z,98919.47
2023-10-29T05:38:03.021Z,98923.31
2023-10-29T05:38:36.665Z,98934.22
2023-10-29T05:39:08.426Z,98931.50
2023-10-29T05:39:39.885Z,98928.75
2023-10-29T05:40:11.828Z,98922.53
2023-10-29T05:40:43.432Z,98924.94
2023-10-29T05:41:14.918Z,98931.16
2023-10-29T05:41:46.366Z,98928.44
2023-10-29T05:42:17.813Z,98934.31
2023-10-29T05:42:49.218Z,98926.56
2023-10-29T05:43:20.615Z,98935.19
2023-10-29T05:43:52.337Z,98937.91
2023-10-29T05:44:23.782Z,98928.94
2023-10-29T05:44:55.324Z,98940.63
2023-10-29T05:45:28.127Z,98935.19
2023-10-29T05:45:59.675Z,98940.63
2023-10-29T05:46:31.223Z,98943.78
2023-10-29T05:47:02.918Z,98932.88
2023-10-29T05:47:34.427Z,98941.84
2023-10-29T05:48:06.110Z,98927.03
2023-10-29T05:48:37.677Z,98932.50
2023-10-29T05:49:09.140Z,98937.19
2023-10-29T05:49:40.563Z,98935.25
2023-10-29T05:50:12.035Z,98933.31
2023-10-29T05:50:43.572Z,98937.97
2023-10-29T05:51:19.239Z,98943.03
2023-10-29T05:51:51.098Z,98943.78
2023-10-29T05:52:22.798Z,98942.25
2023-10-29T05:52:54.317Z,98950.84
2023-10-29T05:53:25.853Z,98939.16
2023-10-29T05:53:57.346Z,98950.09
2023-10-29T05:54:29.818Z,98932.94
2023-10-29T05:55:02.296Z,98945.38
2023-10-29T05:55:34.299Z,98946.16
2023-10-29T05:56:06.834Z,98946.16
2023-10-29T05:56:38.285Z,98951.63
2023-10-29T05:57:10.977Z,98950.09
2023-10-29T05:57:42.533Z,98933.31
2023-10-29T05:58:14.046Z,98944.22
2023-10-29T05:58:45.913Z,98941.91
2023-10-29T05:59:17.366Z,98945.38
2023-10-29T05:59:48.848Z,98942.66
2023-10-29T06:00:20.697Z,98941.50
2023-10-29T06:00:52.366Z,98937.19
2023-10-29T06:01:23.802Z,98946.16
2023-10-29T06:01:55.300Z,98948.13
2023-10-29T06:02:26.855Z,98944.22
2023-10-29T06:02:58.578Z,98949.69
2023-10-29T06:03:30.321Z,98951.63
2023-10-29T06:04:20.661Z,98951.63
2023-10-29T06:04:52.346Z,98952.06
2023-10-29T06:05:24.306Z,98951.31
2023-10-29T06:05:56.909Z,98959.50
2023-10-29T06:06:28.494Z,98954.78
2023-10-29T06:07:18.387Z,98964.97
2023-10-29T06:07:50.068Z,98951.31
2023-10-29T06:08:22.960Z,98950.53
2023-10-29T06:08:54.487Z,98961.00
2023-10-29T06:09:25.942Z,98959.03
2023-10-29T06:09:57.481Z,98962.22
2023-10-29T06:10:28.946Z,98967.25
2023-10-29T06:11:18.934Z,98974.66
2023-10-29T06:11:50.914Z,98968.88
2023-10-29T06:12:22.431Z,98966.59
2023-10-29T06:12:53.878Z,98970.84
2023-10-29T06:13:25.296Z,98981.78
2023-10-29T06:13:58.284Z,98986.47
2023-10-29T06:14:29.834Z,98983.31
2023-10-29T06:15:01.390Z,98982.53
2023-10-29T06:15:32.848Z,99003.94
2023-10-29T06:16:09.328Z,98990.28
2023-10-29T06:16:40.913Z,98992.25
2023-10-29T06:17:23.674Z,98990.28
2023-10-29T06:17:58.064Z,98995.44
2023-10-29T06:18:29.659Z,98989.19
2023-10-29T06:19:03.867Z,98996.97
2023-10-29T06:19:35.361Z,98999.69
2023-10-29T06:20:09.906Z,98989.19
2023-10-29T06:20:42.369Z,98986.03
2023-10-29T06:21:13.928Z,98998.03
2023-10-29T06:21:45.412Z,98992.56
2023-10-29T06:22:16.894Z,98993.78
2023-10-29T06:22:48.773Z,98997.28
2023-10-29T06:23:21.147Z,98995.00